createdAt,value
2019-03-16T00:00:38.103Z,95676.87
2019-03-16T00:03:04.823Z,95671.80
2019-03-16T00:05:31.546Z,95668.33
2019-03-16T00:07:58.244Z,95678.55
2019-03-16T00:10:24.982Z,95676.64
2019-03-16T00:12:51.586Z,95680.39
2019-03-16T00:15:18.210Z,95677.15
2019-03-16T00:17:44.825Z,95690.02
2019-03-16T00:20:11.541Z,95667.55
2019-03-16T00:22:38.151Z,95668.89
2019-03-16T00:25:07.558Z,95685.30
2019-03-16T00:27:34.244Z,95669.14
2019-03-16T00:30:00.858Z,95681.20
2019-03-16T00:32:27.474Z,95663.20
2019-03-16T00:34:54.081Z,95680.70
2019-03-16T00:37:20.681Z,95682.95
2019-03-16T00:39:47.308Z,95667.09
2019-03-16T00:42:13.943Z,95678.66
2019-03-16T00:44:40.554Z,95675.16
2019-03-16T00:47:07.148Z,95669.53
2019-03-16T00:49:33.751Z,95681.34
2019-03-16T00:52:00.359Z,95679.70
2019-03-16T00:54:26.969Z,95684.28
2019-03-16T00:56:53.607Z,95673.05
2019-03-16T00:59:20.204Z,95678.76
2019-03-16T01:01:46.825Z,95683.30
2019-03-16T01:04:13.447Z,95684.62
2019-03-16T01:06:40.073Z,95673.86
2019-03-16T01:09:06.951Z,95681.65
2019-03-16T01:11:33.682Z,95680.81
2019-03-16T01:14:00.289Z,95686.49
2019-03-16T01:16:26.904Z,95691.06
2019-03-16T01:18:53.543Z,95699.41
2019-03-16T01:21:20.272Z,95710.41
2019-03-16T01:23:46.997Z,95707.19
2019-03-16T01:26:13.607Z,95695.67
2019-03-16T01:28:40.210Z,95688.12
2019-03-16T01:31:06.840Z,95689.13
2019-03-16T01:33:33.554Z,95695.34
2019-03-16T01:36:00.264Z,95700.69
2019-03-16T01:38:26.983Z,95687.53
2019-03-16T01:40:53.611Z,95682.46
2019-03-16T01:43:20.235Z,95692.45
2019-03-16T01:45:46.951Z,95671.20
2019-03-16T01:48:13.618Z,95667.91
2019-03-16T01:50:40.329Z,95697.78
2019-03-16T01:53:06.926Z,95685.73
2019-03-16T01:55:33.536Z,95694.33
2019-03-16T01:58:00.221Z,95688.65
2019-03-16T02:00:26.838Z,95696.20
2019-03-16T02:02:55.613Z,95697.25
2019-03-16T02:05:21.960Z,95695.34
2019-03-16T02:07:48.553Z,95684.59
2019-03-16T02:10:15.121Z,95700.72
2019-03-16T02:12:41.752Z,95699.38
2019-03-16T02:15:08.370Z,95711.73
2019-03-16T02:17:34.973Z,95701.25
2019-03-16T02:20:01.580Z,95703.41
2019-03-16T02:22:28.296Z,95717.66
2019-03-16T02:24:54.882Z,95716.56
2019-03-16T02:27:21.502Z,95713.99
2019-03-16T02:29:48.095Z,95704.86
2019-03-16T02:32:14.739Z,95713.99
2019-03-16T02:34:41.397Z,95718.02
2019-03-16T02:37:08.007Z,95717.23
2019-03-16T02:39:34.603Z,95734.16
2019-03-16T02:42:01.214Z,95704.86
2019-03-16T02:44:27.809Z,95714.27
2019-03-16T02:46:54.526Z,95717.46
2019-03-16T02:49:21.254Z,95708.70
2019-03-16T02:51:47.915Z,95720.23
2019-03-16T02:54:14.512Z,95713.45
2019-03-16T02:56:41.136Z,95702.67
2019-03-16T02:59:07.755Z,95722.90
2019-03-16T03:01:34.476Z,95704.81
2019-03-16T03:04:01.087Z,95705.53
2019-03-16T03:06:27.798Z,95704.50
2019-03-16T03:08:54.415Z,95707.22
2019-03-16T03:11:21.117Z,95711.44
2019-03-16T03:13:47.846Z,95719.77
2019-03-16T03:16:14.654Z,95709.02
2019-03-16T03:18:41.370Z,95737.48
2019-03-16T03:21:08.078Z,95727.60
2019-03-16T03:23:34.804Z,95728.11
2019-03-16T03:26:01.531Z,95735.33
2019-03-16T03:28:28.165Z,95732.58
2019-03-16T03:30:54.878Z,95735.80
2019-03-16T03:33:21.839Z,95746.30
2019-03-16T03:35:48.528Z,95722.61
2019-03-16T03:38:15.121Z,95756.23
2019-03-16T03:40:41.742Z,95744.67
2019-03-16T03:43:08.445Z,95740.58
2019-03-16T03:45:35.060Z,95740.14
2019-03-16T03:48:01.686Z,95746.64
2019-03-16T03:50:28.397Z,95746.86
2019-03-16T03:52:55.094Z,95764.87
2019-03-16T03:55:21.743Z,95753.30
2019-03-16T03:57:48.450Z,95758.42
2019-03-16T04:00:15.072Z,95745.77
2019-03-16T04:02:41.765Z,95757.86
2019-03-16T04:05:08.494Z,95754.67
2019-03-16T04:07:35.177Z,95764.05
2019-03-16T04:10:01.971Z,95769.98
2019-03-16T04:12:28.568Z,95759.77
2019-03-16T04:14:55.184Z,95775.96
2019-03-16T04:17:21.787Z,95768.90
2019-03-16T04:19:48.492Z,95777.70
2019-03-16T04:22:15.218Z,95771.77
2019-03-16T04:24:45.099Z,95775.52
2019-03-16T04:27:16.992Z,95768.83
2019-03-16T04:29:54.741Z,95775.96
2019-03-16T04:32:21.456Z,95767.67
2019-03-16T04:34:48.078Z,95780.52
2019-03-16T04:37:14.772Z,95764.64
2019-03-16T04:39:41.369Z,95781.37
2019-03-16T04:42:07.973Z,95783.49
2019-03-16T04:44:34.698Z,95784.02
2019-03-16T04:47:01.390Z,95783.46
2019-03-16T04:49:28.030Z,95772.93
2019-03-16T04:51:54.696Z,95799.59
2019-03-16T04:54:21.346Z,95786.40
2019-03-16T04:56:47.977Z,95787.74
2019-03-16T04:59:14.620Z,95792.84
2019-03-16T05:01:41.226Z,95791.25
2019-03-16T05:04:07.924Z,95788.55
2019-03-16T05:06:34.520Z,95791.77
2019-03-16T05:09:01.140Z,95801.64
2019-03-16T05:11:27.840Z,95790.30
2019-03-16T05:13:54.435Z,95798.61
2019-03-16T05:16:21.190Z,95797.80
2019-03-16T05:18:47.870Z,95805.58
2019-03-16T05:21:14.481Z,95794.58
2019-03-16T05:23:41.069Z,95840.27
2019-03-16T05:26:07.685Z,95802.39
2019-03-16T05:28:34.292Z,95803.42
2019-03-16T05:31:00.931Z,95815.80
2019-03-16T05:33:27.538Z,95821.98
2019-03-16T05:35:54.279Z,95808.27
2019-03-16T05:38:20.919Z,95813.92
2019-03-16T05:40:47.618Z,95808.83
2019-03-16T05:43:14.245Z,95830.15
2019-03-16T05:45:40.954Z,95822.37
2019-03-16T05:48:07.645Z,95819.97
2019-03-16T05:50:34.251Z,95826.47
2019-03-16T05:53:00.963Z,95829.13
2019-03-16T05:55:27.564Z,95833.72
2019-03-16T05:57:54.180Z,95837.82
2019-03-16T06:00:20.895Z,95838.95
2019-03-16T06:02:47.525Z,95834.63
2019-03-16T06:05:14.119Z,95841.07
2019-03-16T06:07:40.742Z,95837.04
2019-03-16T06:10:26.913Z,95856.42
2019-03-16T06:12:53.505Z,95850.55
2019-03-16T06:15:20.093Z,95856.84
2019-03-16T06:17:46.625Z,95855.02
2019-03-16T06:20:13.221Z,95862.56
2019-03-16T06:22:39.849Z,95867.78
2019-03-16T06:25:25.957Z,95850.08
2019-03-16T06:27:52.653Z,95874.04
2019-03-16T06:30:20.861Z,95873.23
2019-03-16T06:32:47.689Z,95873.20
2019-03-16T06:35:24.657Z,95868.59
2019-03-16T06:37:48.714Z,95857.84
2019-03-16T06:40:15.060Z,95860.00
2019-03-16T06:42:41.684Z,95860.81
2019-03-16T06:45:08.297Z,95858.94
2019-03-16T06:47:34.895Z,95861.34
2019-03-16T06:50:01.516Z,95858.94
2019-03-16T06:52:28.216Z,95864.84
2019-03-16T06:54:54.933Z,95866.47
2019-03-16T06:57:21.524Z,95867.03
2019-03-16T06:59:48.158Z,95871.91
2019-03-16T07:02:14.770Z,95882.95
2019-03-16T07:04:41.460Z,95883.23
2019-03-16T07:07:08.086Z,95885.64
2019-03-16T07:09:34.712Z,95887.24
2019-03-16T07:12:01.398Z,95892.59
2019-03-16T07:14:28.020Z,95893.63
2019-03-16T07:17:02.035Z,95894.44
2019-03-16T07:19:23.230Z,95900.06
2019-03-16T07:21:49.925Z,95908.63
2019-03-16T07:24:16.521Z,95911.78
2019-03-16T07:26:43.130Z,95896.49
2019-03-16T07:29:09.731Z,95908.31
2019-03-16T07:31:36.379Z,95910.19
2019-03-16T07:34:02.996Z,95902.41
2019-03-16T07:36:29.691Z,95910.22
2019-03-16T07:38:56.299Z,95917.27
2019-03-16T07:41:22.935Z,95924.02
2019-03-16T07:43:49.636Z,95922.92
2019-03-16T07:46:16.370Z,95925.61
2019-03-16T07:48:43.044Z,95921.58
2019-03-16T07:51:09.564Z,95931.81
2019-03-16T07:53:36.164Z,95935.59
2019-03-16T07:56:02.887Z,95931.63
2019-03-16T07:58:29.589Z,95930.31
2019-03-16T08:00:56.223Z,95932.75
2019-03-16T08:03:23.099Z,95941.98
2019-03-16T08:05:49.823Z,95933.13
2019-03-16T08:08:16.544Z,95939.64
2019-03-16T08:10:43.279Z,95935.42
2019-03-16T08:13:09.987Z,95938.11
2019-03-16T08:15:36.661Z,95929.53
2019-03-16T08:18:03.346Z,95944.86
2019-03-16T08:20:31.476Z,95944.39
2019-03-16T08:22:58.440Z,95953.00
2019-03-16T08:25:25.053Z,95948.74
2019-03-16T08:27:54.507Z,95952.78
2019-03-16T08:30:23.452Z,95956.84
2019-03-16T08:32:54.992Z,95954.22
2019-03-16T08:35:21.606Z,95954.80
2019-03-16T08:37:48.213Z,95944.09
2019-03-16T08:40:14.777Z,95943.08
2019-03-16T08:42:41.410Z,95938.33
2019-03-16T08:45:08.156Z,95939.20
2019-03-16T08:47:34.782Z,95950.34
2019-03-16T08:50:01.432Z,95940.44
2019-03-16T08:52:28.067Z,95951.28
2019-03-16T08:54:54.764Z,95941.92
2019-03-16T08:57:21.470Z,95953.63
2019-03-16T08:59:48.078Z,95947.45
2019-03-16T09:02:14.782Z,95948.83
2019-03-16T09:04:41.668Z,95932.96
2019-03-16T09:07:08.307Z,95947.22
2019-03-16T09:09:35.030Z,95942.42
2019-03-16T09:12:01.738Z,95965.92
2019-03-16T09:14:28.369Z,95944.38
2019-03-16T09:16:55.021Z,95936.27
2019-03-16T09:19:21.646Z,95941.66
2019-03-16T09:21:48.378Z,95934.64
2019-03-16T09:24:15.108Z,95934.13
2019-03-16T09:26:41.803Z,95940.89
2019-03-16T09:29:14.877Z,95944.19
2019-03-16T09:31:46.823Z,95953.11
2019-03-16T09:34:13.425Z,95945.63
2019-03-16T09:36:40.180Z,95950.25
2019-03-16T09:39:07.068Z,95951.33
2019-03-16T09:41:33.808Z,95951.30
2019-03-16T09:44:02.004Z,95953.52
2019-03-16T09:46:35.620Z,95968.91
2019-03-16T09:49:02.314Z,95963.48
2019-03-16T09:51:28.918Z,95949.20
2019-03-16T09:53:55.510Z,95948.38
2019-03-16T09:56:22.124Z,95949.19
2019-03-16T09:58:48.844Z,95951.06
2019-03-16T10:01:15.595Z,95951.63
2019-03-16T10:03:42.253Z,95958.38
2019-03-16T10:06:08.875Z,95963.77
2019-03-16T10:08:35.514Z,95963.77
2019-03-16T10:11:02.225Z,95964.88
2019-03-16T10:13:28.876Z,95959.98
2019-03-16T10:15:55.599Z,95955.11
2019-03-16T10:18:22.263Z,95968.91
2019-03-16T10:20:48.873Z,95979.20
2019-03-16T10:23:15.526Z,95970.04
2019-03-16T10:25:42.165Z,95975.19
2019-03-16T10:28:08.865Z,95965.73
2019-03-16T10:30:35.488Z,95962.50
2019-03-16T10:33:02.126Z,95966.86
2019-03-16T10:35:28.840Z,95973.61
2019-03-16T10:37:55.574Z,95974.15
2019-03-16T10:40:22.279Z,95964.98
2019-03-16T10:42:49.073Z,95971.73
2019-03-16T10:45:15.681Z,95956.88
2019-03-16T10:47:42.290Z,95956.86
2019-03-16T10:50:09.021Z,95951.73
2019-03-16T10:52:35.726Z,95948.50
2019-03-16T10:55:02.738Z,95947.66
2019-03-16T10:57:29.426Z,95946.03
2019-03-16T10:59:56.047Z,95945.22
2019-03-16T11:02:22.689Z,95943.33
2019-03-16T11:04:49.309Z,95949.00
2019-03-16T11:07:15.969Z,95934.67
2019-03-16T11:09:42.700Z,95928.18
2019-03-16T11:12:09.337Z,95927.64
2019-03-16T11:14:36.116Z,95931.12
2019-03-16T11:17:02.746Z,95923.27
2019-03-16T11:19:29.462Z,95928.67
2019-03-16T11:21:56.174Z,95915.37
2019-03-16T11:24:22.939Z,95927.00
2019-03-16T11:26:49.636Z,95917.25
2019-03-16T11:29:16.252Z,95906.61
2019-03-16T11:31:42.867Z,95904.58
2019-03-16T11:34:09.590Z,95895.09
2019-03-16T11:36:36.316Z,95884.13
2019-03-16T11:39:04.066Z,95886.85
2019-03-16T11:41:30.817Z,95878.20
2019-03-16T11:43:57.575Z,95889.05
2019-03-16T11:46:24.202Z,95877.25
2019-03-16T11:48:50.938Z,95881.62
2019-03-16T11:51:17.545Z,95876.03
2019-03-16T11:53:44.283Z,95883.15
2019-03-16T11:56:17.832Z,95881.20
2019-03-16T11:58:39.518Z,95873.89
2019-03-16T12:01:06.245Z,95870.33
2019-03-16T12:03:32.949Z,95873.28
2019-03-16T12:05:59.653Z,95867.11
2019-03-16T12:08:26.383Z,95868.65
2019-03-16T12:10:53.009Z,95866.70
2019-03-16T12:13:20.024Z,95858.92
2019-03-16T12:15:46.885Z,95863.31
2019-03-16T12:18:13.599Z,95859.88
2019-03-16T12:20:40.344Z,95871.57
2019-03-16T12:23:07.036Z,95869.98
2019-03-16T12:25:33.654Z,95868.95
2019-03-16T12:28:00.370Z,95863.92
2019-03-16T12:30:26.999Z,95844.08
2019-03-16T12:32:53.713Z,95852.72
2019-03-16T12:35:20.378Z,95855.95
2019-03-16T12:37:47.011Z,95852.32
2019-03-16T12:40:13.646Z,95836.28
2019-03-16T12:42:40.379Z,95834.83
2019-03-16T12:45:08.753Z,95834.69
2019-03-16T12:47:35.398Z,95830.13
2019-03-16T12:50:02.155Z,95837.23
2019-03-16T12:52:28.859Z,95838.33
2019-03-16T12:54:55.492Z,95830.19
2019-03-16T12:57:22.230Z,95818.80
2019-03-16T12:59:48.965Z,95817.65
2019-03-16T13:02:15.708Z,95808.57
2019-03-16T13:04:42.436Z,95809.08
2019-03-16T13:07:09.166Z,95797.69
2019-03-16T13:09:35.877Z,95790.88
2019-03-16T13:12:02.591Z,95778.69
2019-03-16T13:14:29.214Z,95782.64
2019-03-16T13:16:55.915Z,95777.62
2019-03-16T13:19:22.630Z,95766.47
2019-03-16T13:21:49.237Z,95764.63
2019-03-16T13:24:15.961Z,95771.95
2019-03-16T13:26:42.583Z,95761.57
2019-03-16T13:29:09.286Z,95761.84
2019-03-16T13:31:35.914Z,95751.72
2019-03-16T13:34:02.617Z,95763.30
2019-03-16T13:36:29.239Z,95762.60
2019-03-16T13:38:55.929Z,95762.45
2019-03-16T13:41:22.562Z,95754.91
2019-03-16T13:43:49.240Z,95757.38
2019-03-16T13:46:15.858Z,95752.61
2019-03-16T13:48:42.469Z,95753.17
2019-03-16T13:51:09.090Z,95757.25
2019-03-16T13:53:35.777Z,95752.19
2019-03-16T13:56:02.723Z,95749.70
2019-03-16T13:58:29.430Z,95747.50
2019-03-16T14:00:56.156Z,95749.16
2019-03-16T14:03:22.859Z,95744.55
2019-03-16T14:05:49.604Z,95754.27
2019-03-16T14:08:16.225Z,95734.59
2019-03-16T14:10:42.935Z,95741.86
2019-03-16T14:13:09.634Z,95743.20
2019-03-16T14:15:36.329Z,95743.18
2019-03-16T14:18:02.955Z,95733.16
2019-03-16T14:20:29.678Z,95739.13
2019-03-16T14:23:08.018Z,95732.64
2019-03-16T14:25:34.838Z,95729.94
2019-03-16T14:28:01.568Z,95725.59
2019-03-16T14:30:40.561Z,95721.59
2019-03-16T14:32:56.799Z,95713.56
2019-03-16T14:35:23.544Z,95710.09
2019-03-16T14:37:50.253Z,95707.67
2019-03-16T14:40:17.023Z,95703.65
2019-03-16T14:42:43.708Z,95708.59
2019-03-16T14:45:10.435Z,95704.03
2019-03-16T14:47:37.036Z,95711.09
2019-03-16T14:50:04.289Z,95717.64
2019-03-16T14:52:30.935Z,95702.25
2019-03-16T14:54:57.629Z,95717.69
2019-03-16T14:57:24.249Z,95706.64
2019-03-16T14:59:50.917Z,95710.16
2019-03-16T15:02:17.629Z,95708.23
2019-03-16T15:04:44.241Z,95701.19
2019-03-16T15:07:10.856Z,95702.80
2019-03-16T15:09:37.477Z,95696.57
2019-03-16T15:12:04.167Z,95693.58
2019-03-16T15:14:30.771Z,95691.39
2019-03-16T15:16:57.363Z,95685.36
2019-03-16T15:19:23.993Z,95685.05
2019-03-16T15:21:50.639Z,95680.16
2019-03-16T15:24:17.348Z,95669.81
2019-03-16T15:26:44.041Z,95664.20
2019-03-16T15:29:10.657Z,95665.77
2019-03-16T15:31:37.351Z,95658.86
2019-03-16T15:34:03.970Z,95657.05
2019-03-16T15:36:30.673Z,95659.17
2019-03-16T15:38:57.310Z,95654.44
2019-03-16T15:41:23.941Z,95659.42
2019-03-16T15:43:50.570Z,95656.16
2019-03-16T15:46:17.195Z,95652.64
2019-03-16T15:48:43.877Z,95655.38
2019-03-16T15:51:10.519Z,95650.58
2019-03-16T15:53:37.218Z,95642.86
2019-03-16T15:56:03.840Z,95640.27
2019-03-16T15:58:30.461Z,95634.42
2019-03-16T16:01:03.581Z,95635.21
2019-03-16T16:03:25.657Z,95628.97
2019-03-16T16:05:52.276Z,95626.02
2019-03-16T16:08:19.495Z,95622.20
2019-03-16T16:10:46.220Z,95627.47
2019-03-16T16:13:12.822Z,95627.55
2019-03-16T16:15:39.458Z,95624.88
2019-03-16T16:18:06.058Z,95624.88
2019-03-16T16:20:32.785Z,95624.94
2019-03-16T16:22:59.439Z,95624.61
2019-03-16T16:25:26.130Z,95630.64
2019-03-16T16:27:52.726Z,95635.78
2019-03-16T16:30:19.670Z,95625.28
2019-03-16T16:32:46.370Z,95623.12
2019-03-16T16:35:13.090Z,95624.42
2019-03-16T16:37:39.911Z,95618.94
2019-03-16T16:40:11.550Z,95621.88
2019-03-16T16:42:38.238Z,95618.36
2019-03-16T16:45:05.197Z,95617.83
2019-03-16T16:47:31.840Z,95626.42
2019-03-16T16:49:58.568Z,95628.47
2019-03-16T16:52:25.275Z,95625.06
2019-03-16T16:54:51.962Z,95626.70
2019-03-16T16:57:18.574Z,95624.84
2019-03-16T16:59:45.165Z,95635.64
2019-03-16T17:02:11.767Z,95632.07
2019-03-16T17:04:38.382Z,95630.07
2019-03-16T17:07:05.012Z,95629.10
2019-03-16T17:09:31.622Z,95629.95
2019-03-16T17:11:58.235Z,95630.86
2019-03-16T17:14:24.940Z,95622.26
2019-03-16T17:16:51.630Z,95623.91
2019-03-16T17:19:18.250Z,95630.12
2019-03-16T17:21:44.943Z,95627.41
2019-03-16T17:24:11.583Z,95623.03
2019-03-16T17:26:38.278Z,95631.36
2019-03-16T17:29:05.044Z,95630.52
2019-03-16T17:31:41.795Z,95632.09
2019-03-16T17:34:06.644Z,95628.28
2019-03-16T17:36:33.247Z,95636.56
2019-03-16T17:38:59.859Z,95638.12
2019-03-16T17:41:26.511Z,95630.23
2019-03-16T17:43:53.133Z,95629.07
2019-03-16T17:46:19.862Z,95633.08
2019-03-16T17:48:46.475Z,95631.88
2019-03-16T17:51:13.209Z,95624.98
2019-03-16T17:53:39.849Z,95625.95
2019-03-16T17:56:06.556Z,95624.84
2019-03-16T17:58:33.277Z,95632.58
2019-03-16T18:00:59.972Z,95630.30
2019-03-16T18:03:26.601Z,95637.48
2019-03-16T18:05:53.316Z,95639.05
2019-03-16T18:08:20.025Z,95641.97
2019-03-16T18:10:46.650Z,95651.52
2019-03-16T18:13:13.373Z,95650.80
2019-03-16T18:15:40.058Z,95646.39
2019-03-16T18:18:06.724Z,95646.64
2019-03-16T18:20:33.454Z,95638.88
2019-03-16T18:23:00.103Z,95642.68
2019-03-16T18:25:26.820Z,95638.34
2019-03-16T18:27:53.555Z,95637.18
2019-03-16T18:30:20.263Z,95637.39
2019-03-16T18:32:46.883Z,95642.97
2019-03-16T18:35:13.588Z,95639.05
2019-03-16T18:37:40.213Z,95636.14
2019-03-16T18:40:26.428Z,95634.44
2019-03-16T18:42:53.046Z,95632.24
2019-03-16T18:45:19.720Z,95628.39
2019-03-16T18:47:46.409Z,95623.95
2019-03-16T18:50:13.030Z,95631.05
2019-03-16T18:52:39.642Z,95621.76
2019-03-16T18:55:25.759Z,95616.31
2019-03-16T18:57:52.472Z,95616.50
2019-03-16T19:00:19.172Z,95615.60
2019-03-16T19:02:45.798Z,95616.86
2019-03-16T19:05:12.517Z,95621.88
2019-03-16T19:07:39.176Z,95620.35
2019-03-16T19:10:08.238Z,95618.34
2019-03-16T19:12:35.206Z,95611.50
2019-03-16T19:15:01.944Z,95615.19
2019-03-16T19:17:28.643Z,95611.65
2019-03-16T19:19:55.269Z,95618.85
2019-03-16T19:22:21.986Z,95617.22
2019-03-16T19:24:48.726Z,95627.89
2019-03-16T19:27:15.376Z,95628.60
2019-03-16T19:29:42.094Z,95616.45
2019-03-16T19:32:08.880Z,95613.20
2019-03-16T19:34:35.580Z,95621.74
2019-03-16T19:37:02.240Z,95620.35
2019-03-16T19:39:28.976Z,95610.89
2019-03-16T19:41:55.751Z,95606.53
2019-03-16T19:44:22.491Z,95612.07
2019-03-16T19:46:49.138Z,95609.61
2019-03-16T19:49:15.916Z,95608.23
2019-03-16T19:51:42.636Z,95603.34
2019-03-16T19:54:09.338Z,95600.91
2019-03-16T19:56:36.029Z,95598.23
2019-03-16T19:59:02.750Z,95600.62
2019-03-16T20:01:29.459Z,95603.24
2019-03-16T20:03:56.216Z,95594.11
2019-03-16T20:06:26.093Z,95591.97
2019-03-16T20:08:51.579Z,95591.16
2019-03-16T20:11:18.293Z,95586.85
2019-03-16T20:13:45.011Z,95579.04
2019-03-16T20:16:11.738Z,95582.77
2019-03-16T20:18:38.578Z,95585.10
2019-03-16T20:21:05.338Z,95582.61
2019-03-16T20:23:32.056Z,95588.72
2019-03-16T20:25:58.863Z,95590.77
2019-03-16T20:28:25.481Z,95590.97
2019-03-16T20:30:52.206Z,95591.16
2019-03-16T20:33:18.965Z,95581.98
2019-03-16T20:35:45.589Z,95586.98
2019-03-16T20:38:12.235Z,95593.19
2019-03-16T20:40:39.026Z,95576.92
2019-03-16T20:43:05.639Z,95580.33
2019-03-16T20:45:32.462Z,95578.75
2019-03-16T20:47:59.344Z,95577.70
2019-03-16T20:50:26.071Z,95578.78
2019-03-16T20:52:52.700Z,95579.07
2019-03-16T20:55:19.446Z,95573.14
2019-03-16T20:57:46.176Z,95576.39
2019-03-16T21:00:12.928Z,95578.84
2019-03-16T21:02:39.663Z,95573.20
2019-03-16T21:05:06.788Z,95576.11
2019-03-16T21:07:33.514Z,95572.88
2019-03-16T21:10:00.354Z,95574.69
2019-03-16T21:12:27.083Z,95569.52
2019-03-16T21:14:53.830Z,95568.94
2019-03-16T21:17:20.524Z,95573.94
2019-03-16T21:19:47.244Z,95569.78
2019-03-16T21:22:13.970Z,95575.77
2019-03-16T21:24:40.660Z,95577.50
2019-03-16T21:27:07.292Z,95567.54
2019-03-16T21:29:33.879Z,95569.05
2019-03-16T21:32:00.516Z,95565.50
2019-03-16T21:34:27.130Z,95571.24
2019-03-16T21:36:53.749Z,95567.60
2019-03-16T21:39:20.391Z,95557.81
2019-03-16T21:41:47.097Z,95572.89
2019-03-16T21:44:13.701Z,95556.20
2019-03-16T21:46:40.342Z,95566.16
2019-03-16T21:49:07.069Z,95566.61
2019-03-16T21:51:33.683Z,95560.53
2019-03-16T21:54:00.312Z,95556.87
2019-03-16T21:56:27.099Z,95559.32
2019-03-16T21:58:53.798Z,95557.47
2019-03-16T22:01:20.536Z,95557.69
2019-03-16T22:03:47.163Z,95553.92
2019-03-16T22:06:13.783Z,95558.73
2019-03-16T22:08:40.529Z,95553.17
2019-03-16T22:11:07.278Z,95561.47
2019-03-16T22:13:33.980Z,95557.40
2019-03-16T22:16:00.712Z,95562.45
2019-03-16T22:18:27.339Z,95559.94
2019-03-16T22:20:53.949Z,95550.83
2019-03-16T22:23:20.666Z,95546.23
2019-03-16T22:25:47.311Z,95553.17
2019-03-16T22:28:14.036Z,95546.95
2019-03-16T22:30:40.669Z,95554.38
2019-03-16T22:33:07.289Z,95552.45
2019-03-16T22:35:33.936Z,95550.31
2019-03-16T22:38:00.562Z,95550.37
2019-03-16T22:40:27.275Z,95550.08
2019-03-16T22:42:53.886Z,95554.89
2019-03-16T22:45:20.591Z,95547.34
2019-03-16T22:47:47.257Z,95546.70
2019-03-16T22:50:14.274Z,95551.11
2019-03-16T22:52:40.965Z,95543.50
2019-03-16T22:55:11.859Z,95547.37
2019-03-16T22:57:38.675Z,95548.05
2019-03-16T23:00:05.612Z,95549.86
2019-03-16T23:02:32.978Z,95548.69
2019-03-16T23:05:07.860Z,95549.14
2019-03-16T23:07:34.482Z,95545.81
2019-03-16T23:10:01.092Z,95550.04
2019-03-16T23:12:27.744Z,95535.48
2019-03-16T23:14:54.377Z,95538.31
2019-03-16T23:17:21.088Z,95550.17
2019-03-16T23:19:47.706Z,95550.02
2019-03-16T23:22:14.335Z,95541.40
2019-03-16T23:24:40.945Z,95542.06
2019-03-16T23:27:07.683Z,95543.10
2019-03-16T23:29:34.366Z,95540.59
2019-03-16T23:32:00.983Z,95538.08
2019-03-16T23:34:27.698Z,95539.41
2019-03-16T23:36:54.300Z,95534.81
2019-03-16T23:39:20.931Z,95538.30
2019-03-16T23:41:47.634Z,95530.83
2019-03-16T23:44:14.256Z,95537.04
2019-03-16T23:46:40.854Z,95530.30
2019-03-16T23:49:07.483Z,95529.75
2019-03-16T23:51:34.104Z,95535.59
2019-03-16T23:54:00.810Z,95523.60
2019-03-16T23:56:27.422Z,95527.59
2019-03-16T23:58:54.438Z,95516.86
